Tiempo atmosférico en la estación meteorológica de Cervera De Pisuerga, Palencia (1140 m.)



Fecha
DESCASC
Temp. máxima en grados centígrados (hora)
DESCASC
Temp. mínima en grados centígrados (hora)
DESCASC
Temp. media en grados centígrados
DESCASC
Racha de viento máxima en m/sg (hora)
DESCASC
Velocidad máxima media en intervalos de 10 minutos(hora)
DESCASC
Precipitaciones diarias en mm
DESCASC
Precipitaciones de 00:00 a 06:00 en mm
DESCASC
Precipitaciones de 06:00 a 12:00 en mm
DESCASC
Precipitaciones de 12:00 a 18:00 en mm
DESCASC
Precipitaciones de 18:00 a 24:00 en mm
DESCASC
06-07-2020 24.7 (16:10) 10.9 (23:59) 17.8 8.06 (13:30) 3.89 (01:20) 0 0 0 0 0
05-07-2020 29.8 (17:20) 12.1 (06:10) 20.9 6.67 (23:50) 4.17 (00:20) 0 0 0 0 0
04-07-2020 27.6 (17:00) 5.5 (07:00) 16.6 6.39 (13:40) 3.89 (07:30) 0 0 0 0 0
03-07-2020 21.9 (18:20) 5.8 (06:10) 13.8 6.94 (14:50) 3.89 (07:30) 0 0 0 0 0
02-07-2020 18.5 (12:40) 9.2 (00:00) 13.8 10 (20:00) 4.44 (19:30) 0 0 0 0 0
01-07-2020 26.6 (15:30) 12.5 (00:00) 19.6 6.67 (15:00) 5 (01:20) 0 0 0 0 0
30-06-2020 29.5 (17:00) 8.8 (00:00) 19.2 8.61 (19:40) 5 (23:10) 0 0 0 0 0
29-06-2020 24.6 (18:00) 13.1 (00:00) 18.9 6.39 (14:20) 3.89 (14:10) 0 0 0 0 0
28-06-2020 28.1 (17:40) 11.6 (00:00) 19.9 8.89 (15:10) 4.72 (15:10) 0 0 0 0 0
27-06-2020 24.1 (18:00) 8.9 (00:00) 16.5 12.5 (18:40) 5.56 (16:10) 0 0 0 0 0
26-06-2020 24.9 (17:50) 11.4 (00:00) 18.1 -- (--) -- (--) 0 0 0 0 0
25-06-2020 24.7 (19:00) 13.3 (00:00) 19 -- (--) -- (--) -- -- 3.6 2 0
24-06-2020 28.8 (15:00) 14.5 (00:00) 21.6 -- (--) -- (--) -- -- -- -- --
23-06-2020 31 (18:50) 11.5 (00:00) 21.3 9.17 (15:20) 4.17 (00:40) -- -- -- -- --
22-06-2020 27.9 (18:00) 10.1 (00:00) 19 6.67 (13:30) 4.72 (23:00) -- -- -- -- --
21-06-2020 25 (17:30) 9.5 (00:00) 17.3 7.5 (14:50) 4.44 (17:10) -- -- -- -- --
20-06-2020 25.3 (18:40) 6.3 (00:00) 15.8 12.22 (16:20) 5 (16:20) -- -- -- -- --
19-06-2020 24 (18:10) 5.9 (00:00) 15 10.56 (14:50) 4.44 (15:40) -- -- -- -- --
18-06-2020 -- (--) -- (--) -- -- (--) -- (--) -- -- -- -- 0
17-06-2020 -- (--) -- (--) -- -- (--) -- (--) -- -- -- -- --
16-06-2020 -- (--) -- (--) -- -- (--) -- (--) -- -- -- -- --
15-06-2020 -- (--) -- (--) -- -- (--) -- (--) -- -- -- -- --
14-06-2020 -- (--) -- (--) -- -- (--) -- (--) -- -- -- -- --
13-06-2020 -- (--) -- (--) -- -- (--) -- (--) -- -- -- -- --
12-06-2020 -- (--) -- (--) -- -- (--) -- (--) -- -- -- -- --
11-06-2020 -- (--) -- (--) -- -- (--) -- (--) -- -- -- -- --
10-06-2020 -- (--) -- (--) -- -- (--) -- (--) -- -- -- -- --
09-06-2020 -- (--) -- (--) -- -- (--) -- (--) -- -- -- -- --

Gráficas

Temp. máximas Temp. mínimas Temp. medias Precipitaciones Rachas de viento máximas Velocidades máximas media en intervalos de 10 minutos

Datos horarios

Fecha y hora oficial Temperatura (ºC) Velocidad del viento (km/h) Dirección del viento Racha (km/h) Dirección de racha Precipitación (mm) Presión (hPa) Tendencia (hPa) Humedad (%)
2020-07-08 23:00:00 18.7 5 Nordeste 35 Nordeste 0 892.1 4.1 65
2020-07-08 22:00:00 19.9 7 Norte 22 Oeste 0 889.6 0.2 62
2020-07-08 21:00:00 20.5 6 Noroeste 21 Este 0 888.8 -0.5 65
2020-07-08 20:00:00 21.9 8 Este 35 Sudoeste 0 888 -1 55
2020-07-08 19:00:00 22.2 9 Este 23 Sudeste 0 889.4 -- 59
2020-07-08 18:00:00 25 7 Este 17 Sudeste 0 889.3 -- 51
2020-07-08 17:00:00 26.2 6 Este 17 Este 0 889 -- 50
2020-07-08 16:00:00 27.5 8 Este 22 Este 0 889.4 -- 42
2020-07-08 15:00:00 28.6 8 Sudeste 14 Sudeste 0 889.5 -- 38
2020-07-08 14:00:00 25.6 4 Este 20 Nordeste 0 889.7 -- 44
2020-07-08 13:00:00 25.1 7 Sudeste 19 Oeste 0 890.1 -- 56
2020-07-08 12:00:00 23.2 10 Sudoeste 20 Sur 0 889.9 -- 52
2020-07-08 11:00:00 21.6 5 Sudoeste 19 Oeste 0 890.1 -- 53
2020-07-08 10:00:00 19.5 12 Oeste 20 Oeste 0 889.7 -- 59
2020-07-08 09:00:00 16.1 6 Noroeste 17 Noroeste 0 889.7 -- 73
2020-07-08 08:00:00 15.1 7 Noroeste 21 Noroeste 0 889.4 -- 54
2020-07-08 07:00:00 14.6 9 Noroeste 22 Noroeste 0 889.4 -- 61
2020-07-08 06:00:00 14.1 11 Noroeste 22 Noroeste 0 889.2 -- 77
2020-07-08 05:00:00 13.8 9 Noroeste 18 Noroeste 0 889.6 -- 86
2020-07-08 04:00:00 13.2 8 Noroeste 12 Oeste 0 889.8 -- 91
2020-07-08 03:00:00 12.7 3 Norte 16 Oeste 0 890.1 -- 91
2020-07-08 02:00:00 14 6 Noroeste 15 Oeste 0 890.4 -- 86
2020-07-08 01:00:00 14.1 2 Oeste 18 Oeste 0 890.7 -- 83
2020-07-08 00:00:00 15.8 6 Oeste 18 Oeste 0 890.7 -- 79
2020-07-07 23:00:00 17.2 8 Norte 22 Oeste 0 890.2 -- 69
2020-07-07 22:00:00 19 5 Oeste 18 Sudoeste 0 889.8 -- 59
2020-07-07 21:00:00 23.2 7 Sudeste 18 Este 0 890 -- 50
2020-07-07 20:00:00 26.4 8 Este 18 Sudeste 0 889.9 -0.6 42
2020-07-07 19:00:00 27.9 8 Este 18 Este 0 889.8 -1 37
2020-07-07 18:00:00 28.1 9 Este 20 Sudeste 0 890.1 -0.9 34
2020-07-07 17:00:00 27.6 12 Este 21 Este 0 890.5 -0.7 33
2020-07-07 16:00:00 27.6 9 Este 19 Sudeste 0 890.8 -0.6 36
2020-07-07 15:00:00 26.9 12 Este 23 Sur 0 891 -0.5 32
2020-07-07 14:00:00 25.1 10 Sudeste 20 Sur 0 891.2 -0.5 32
2020-07-07 13:00:00 22.2 8 Sudeste 17 Sur 0 891.4 -0.4 34
2020-07-07 12:00:00 18.7 9 Sur 14 Sudeste 0 891.5 -0.2 52
2020-07-07 11:00:00 14.9 4 Sudoeste 8 Sudeste 0 891.7 0.3 62
2020-07-07 10:00:00 12.1 5 Sur 17 Sur 0 891.8 0.4 80
2020-07-07 09:00:00 9 6 Noroeste 17 Oeste 0 891.7 0.2 82
2020-07-07 08:00:00 9.1 9 Noroeste 18 Oeste 0 891.4 -0.4 79
2020-07-07 07:00:00 8.1 3 Noroeste 20 Oeste 0 891.4 -- 86
2020-07-07 06:00:00 8.5 4 Noroeste 21 Oeste 0 891.5 -- 83
2020-07-07 05:00:00 8.6 4 Noroeste 21 Oeste 0 891.8 -- 86
2020-07-07 04:00:00 9.1 5 Noroeste 19 Oeste 0 892.2 -- 87
2020-07-07 03:00:00 9.6 5 Norte 21 Oeste 0 892.8 -- 85
2020-07-07 02:00:00 10.4 5 Noroeste 17 Oeste 0 893.1 -- 89
2020-07-07 01:00:00 10.7 3 Noroeste 13 Noroeste 0 893.8 -- 86
2020-07-07 00:00:00 11 3 Noroeste 18 Sur 0 894 -- 88
2020-07-06 23:00:00 12.3 12 Sudoeste 19 Sur 0 894.1 -- 81
2020-07-06 22:00:00 14.7 4 Este 19 Nordeste 0 893.7 -- 75
2020-07-06 21:00:00 18 8 Norte 22 Nordeste 0 893.4 -- 60
2020-07-06 20:00:00 22.1 8 Norte 19 Nordeste 0 893.6 -- 52
2020-07-06 19:00:00 23.2 9 Nordeste 25 Nordeste 0 893.6 -- 50
2020-07-06 18:00:00 23.9 9 Nordeste 22 Este 0 893.7 -- 51
2020-07-06 17:00:00 23.7 10 Nordeste 23 Nordeste 0 893.9 -- 56
2020-07-06 16:00:00 24 8 Nordeste 23 Norte 0 894 -- 57
2020-07-06 15:00:00 22.7 10 Nordeste 24 Norte 0 894.3 -- 56
2020-07-06 14:00:00 21.1 11 Norte 29 Noroeste 0 894.5 -- 58
2020-07-06 13:00:00 20 12 Norte 29 Norte 0 894.6 -- 63
2020-07-06 12:00:00 18.9 13 Norte 29 Nordeste 0 894.5 -- 69
2020-07-06 11:00:00 17.2 12 Norte 28 Noroeste 0 894.4 -- 76
2020-07-06 10:00:00 16.4 10 Noroeste 19 Noroeste 0 894.3 -- 80
2020-07-06 09:00:00 14.9 5 Este 14 Norte 0 894.1 -- 86
2020-07-06 08:00:00 13.5 5 Noroeste 13 Noroeste 0 893.9 -- 85
2020-07-06 07:00:00 12.4 4 Noroeste 15 Oeste 0 893.8 -- 89
2020-07-06 06:00:00 12.5 2 Noroeste 16 Noroeste 0 893.5 -- 88
2020-07-06 05:00:00 12.9 10 Noroeste 13 Oeste 0 893.6 -- 88
2020-07-06 04:00:00 13.4 2 Sudoeste 16 Oeste 0 893.8 -- 89
2020-07-06 03:00:00 14 4 Oeste 17 Oeste 0 894.1 -- 87
2020-07-06 02:00:00 14.7 5 Oeste 20 Oeste 0 894.6 -- 84
2020-07-06 01:00:00 16 13 Noroeste 19 Oeste 0 894.8 -- 80
2020-07-06 00:00:00 17.1 14 Noroeste 24 Noroeste 0 894.8 -- 73
2020-07-05 23:00:00 17.4 9 Noroeste 22 Noroeste 0 894.7 -- 74
2020-07-05 22:00:00 18.9 9 Norte 20 Oeste 0 894.2 -- 71
2020-07-05 21:00:00 20.8 7 Norte 20 Norte 0 894 -- 65
2020-07-05 20:00:00 24 10 Norte 20 Norte 0 893.8 -- 53
2020-07-05 19:00:00 26.5 7 Norte 23 Norte 0 893.8 -- 49
2020-07-05 18:00:00 26.8 8 Norte 20 Norte 0 894 -- 49
2020-07-05 17:00:00 28.5 4 Nordeste 17 Este 0 894.3 -- 44
2020-07-05 16:00:00 28.5 8 Este 18 Este 0 894.5 -- 45
2020-07-05 15:00:00 28.1 5 Sur 16 Este 0 894.6 -- 45
2020-07-05 14:00:00 26.2 5 Sudeste 20 Sur 0 895.1 -- 46
2020-07-05 13:00:00 25 7 Este 19 Oeste 0 895.4 -- 50
2020-07-05 12:00:00 21.4 6 Este 17 Sur 0 895.6 -- 61
2020-07-05 11:00:00 19.5 6 Nordeste 15 Sudoeste 0 895.7 -- 68
2020-07-05 10:00:00 17.3 4 Sur 10 Oeste 0 895.7 -- 79
2020-07-05 09:00:00 14.8 3 Sudoeste 12 Oeste 0 895.4 -- 78
2020-07-05 08:00:00 12.6 3 Noroeste 14 Noroeste 0 895.4 -- 82
2020-07-05 07:00:00 12.9 4 Noroeste 18 Noroeste 0 895.2 -- 79
2020-07-05 06:00:00 12.9 6 Noroeste 18 Noroeste 0 895.2 -- 82
2020-07-05 05:00:00 12.6 6 Noroeste 14 Noroeste 0 895.1 -- 84
2020-07-05 04:00:00 12.7 4 Noroeste 17 Oeste 0 895.4 -- 83
2020-07-05 03:00:00 13 3 Oeste 17 Oeste 0 896.1 -- 82
2020-07-05 02:00:00 14.3 8 Noroeste 17 Oeste 0 896.5 -- 78
2020-07-05 01:00:00 14.9 13 Oeste 19 Oeste 0 896.6 -- 77
2020-07-05 00:00:00 15 4 Oeste 18 Oeste 0 896.7 -- 74
2020-07-04 23:00:00 16.3 10 Noroeste 20 Oeste 0 896.5 -- 67
2020-07-04 22:00:00 17.6 12 Noroeste 21 Oeste 0 896.1 -- 62
2020-07-04 21:00:00 20.1 8 Norte 19 Norte 0 895.6 -- 57
2020-07-04 20:00:00 23.3 9 Norte 19 Oeste 0 895.3 -- 48
2020-07-04 19:00:00 24.5 9 Norte 20 Norte 0 895.2 -- 47
2020-07-04 18:00:00 25.4 9 Norte 18 Norte 0 895.4 -- 45
2020-07-04 17:00:00 26.2 5 Nordeste 17 Nordeste 0 895.5 -- 38
2020-07-04 16:00:00 26.9 5 Este 21 Sur 0 895.6 -- 39
2020-07-04 15:00:00 25.8 11 Sudeste 22 Sur 0 895.7 -- 39
2020-07-04 14:00:00 24.2 12 Sur 23 Noroeste 0 896.1 -- 41
2020-07-04 13:00:00 21.8 9 Noroeste 19 Oeste 0 896.1 -- 34
2020-07-04 12:00:00 19.4 5 Nordeste 14 Oeste 0 895.8 -- 47
2020-07-04 11:00:00 16.2 2 Sur 12 Oeste 0 895.6 -- 58
2020-07-04 10:00:00 13.7 3 Oeste 17 Oeste 0 895.8 -- 59
2020-07-04 09:00:00 10.5 3 Noroeste 23 Oeste 0 895.5 -- 72
2020-07-04 08:00:00 8 6 Noroeste 22 Oeste 0 895.2 -- 77
2020-07-04 07:00:00 5.5 12 Noroeste 22 Oeste 0 895 -- 92
2020-07-04 06:00:00 6.6 12 Noroeste 21 Oeste 0 894.7 -- 93
2020-07-04 05:00:00 7.3 7 Noroeste 19 Oeste 0 894.7 -- 94
2020-07-04 04:00:00 8.3 6 Norte 22 Oeste 0 894.8 -- 94
2020-07-04 03:00:00 8.7 12 Oeste 21 Oeste 0 895.1 -- 94
2020-07-04 02:00:00 9.2 4 Noroeste 18 Oeste 0 895.2 -- 93
2020-07-04 01:00:00 9.7 5 Noroeste 18 Oeste 0 895.3 -- 92
2020-07-04 00:00:00 10.8 5 Norte 16 Oeste 0 895.2 -- 91
2020-07-03 23:00:00 11.5 6 Norte 17 Norte 0 894.9 -- 88
2020-07-03 22:00:00 13 6 Norte 14 Noroeste 0 894.4 -- 80
2020-07-03 21:00:00 17.7 5 Norte 17 Sur 0 894.1 -- 63
2020-07-03 20:00:00 20.4 11 Sur 20 Sur 0 893.8 -- 54
2020-07-03 19:00:00 21.2 8 Nordeste 21 Sudeste 0 893.6 -- 49
2020-07-03 18:00:00 21.3 8 Este 22 Este 0 893.7 -- 49
2020-07-03 17:00:00 21.2 8 Sudeste 21 Sur 0 893.9 -- 49
2020-07-03 16:00:00 20.6 10 Sudeste 20 Sur 0 894 -- 51
2020-07-03 15:00:00 19.8 9 Sudeste 25 Sudeste 0 894.1 -- 53
2020-07-03 14:00:00 19.1 8 Sudeste 19 Sudeste 0 894.3 -- 56
2020-07-03 13:00:00 17.6 5 Este 14 Este 0 894.3 -- 58
2020-07-03 12:00:00 15.2 8 Este 18 Nordeste 0 894.3 -- 68
2020-07-03 11:00:00 12.8 6 Norte 20 Noroeste 0 894 -- 70
2020-07-03 10:00:00 12 7 Nordeste 19 Noroeste 0 893.9 -- 74
2020-07-03 09:00:00 9.6 6 Norte 21 Noroeste 0 893.7 -- 83
2020-07-03 08:00:00 7.7 13 Noroeste 23 Noroeste 0 893.5 -- 90
2020-07-03 07:00:00 6.8 9 Noroeste 19 Oeste 0 893.3 -- 92
2020-07-03 06:00:00 5.9 6 Oeste 16 Oeste 0 893.2 -- 92
2020-07-03 05:00:00 6.8 5 Noroeste 21 Oeste 0 893.1 -- 91
2020-07-03 04:00:00 7.7 8 Noroeste 22 Oeste 0 893 -- 89
2020-07-03 03:00:00 8.4 10 Norte 23 Oeste 0 893.2 -- 87
2020-07-03 02:00:00 8.2 9 Noroeste 22 Oeste 0 893.1 -- 89
2020-07-03 01:00:00 8.6 6 Noroeste 25 Oeste 0 893.3 -- 86
2020-07-03 00:00:00 9.2 7 Noroeste 24 Noroeste 0 893.4 -- 85
2020-07-02 23:00:00 9.3 9 Noroeste 34 Norte 0 892.9 -- 85
2020-07-02 22:00:00 9.6 16 Norte 36 Norte 0 892.2 -- 85
2020-07-02 21:00:00 10.4 15 Norte 35 Norte 0 891.6 -- 81
2020-07-02 20:00:00 12.3 14 Norte 36 Norte 0 891 -- 75
2020-07-02 19:00:00 14.1 9 Norte 26 Noroeste 0 890.9 -- 74
2020-07-02 18:00:00 13.7 14 Norte 26 Norte 0 890.8 -- 73
2020-07-02 17:00:00 17.3 9 Norte 28 Norte 0 890.4 -- 69
2020-07-02 16:00:00 16.7 14 Norte 27 Norte 0 890.4 -- 68
2020-07-02 15:00:00 17.5 6 Nordeste 22 Nordeste 0 890.2 -- 63
2020-07-02 14:00:00 15.5 8 Norte 23 Este 0 890.2 -- 73
2020-07-02 13:00:00 16.7 10 Sudeste 27 Este 0 890 -- 71
2020-07-02 12:00:00 16.1 9 Sudeste 24 Este 0 889.8 -- 75
2020-07-02 11:00:00 15.5 9 Sudeste 19 Este 0 889.7 -- 78
2020-07-02 10:00:00 13.6 8 Este 19 Sudeste 0 889.6 -- 86
2020-07-02 09:00:00 13.1 6 Este 14 Este 0 889.2 -- 89
2020-07-02 08:00:00 12.2 5 Este 12 Sudeste 0 888.7 -- 92
2020-07-02 07:00:00 12.1 5 Este 12 Sudeste 0 888.6 -- 92
2020-07-02 06:00:00 12.2 4 Este 10 Este 0 888.4 -- 93
2020-07-02 05:00:00 12.2 5 Este 11 Este 0 888.3 -- 93
2020-07-02 04:00:00 12.1 5 Este 9 Este 0 888.4 -- 93
2020-07-02 03:00:00 12.1 4 Este 7 Este 0 888.5 -- 91
2020-07-02 02:00:00 12.4 3 Este 6 Este 0 888.8 -- 91
2020-07-02 01:00:00 12.7 2 Sudeste 10 Oeste 0 889.1 -- 87
2020-07-02 00:00:00 13.8 4 Este 10 Sur 0 889.1 -- 85
2020-07-01 23:00:00 13.8 3 Sudeste 14 Noroeste 0 888.9 -- 85
2020-07-01 22:00:00 14.9 3 Nordeste 12 Noroeste 0 888.2 -- 79
2020-07-01 21:00:00 18.3 4 Sudeste 18 Noroeste 0 887.9 -- 69
2020-07-01 20:00:00 19.9 10 Noroeste 20 Norte 0 887.2 -- 65
2020-07-01 19:00:00 22.3 8 Norte 20 Noroeste 0 887 -- 61
2020-07-01 18:00:00 24.3 10 Nordeste 24 Nordeste 0 887.1 -- 59
2020-07-01 17:00:00 25.7 10 Nordeste 22 Nordeste 0 886.9 -- 58
2020-07-01 16:00:00 26.5 7 Nordeste 24 Sur 0 886.7 -- 59
2020-07-01 15:00:00 25.9 11 Este 24 Sudeste 0 886.7 -- 58
2020-07-01 14:00:00 25.2 12 Este 22 Sur 0 886.8 -- 65
2020-07-01 13:00:00 24.1 11 Este 23 Sur 0 886.8 -- 64
2020-07-01 12:00:00 21.4 12 Este 22 Sur 0 886.7 -- 73
2020-07-01 11:00:00 18.7 10 Sudeste 21 Sur 0 886.8 -- 82
2020-07-01 10:00:00 16.9 6 Sudeste 13 Sudeste 0 886.7 -- 86
2020-07-01 09:00:00 15.5 3 Este 14 Noroeste 0 886.4 -- 90
2020-07-01 08:00:00 13.7 5 Noroeste 15 Oeste 0 886.2 -- 91
2020-07-01 07:00:00 12.6 3 Noroeste 13 Oeste 0 885.8 -- 91
2020-07-01 06:00:00 13.7 9 Noroeste 23 Oeste 0 885.5 -- 85
2020-07-01 05:00:00 14.1 10 Noroeste 19 Oeste 0 885.5 -- 85
2020-07-01 04:00:00 15.1 12 Noroeste 22 Oeste 0 885.6 -- 81
2020-07-01 03:00:00 15 10 Noroeste 19 Oeste 0 885.8 -- 85
2020-07-01 02:00:00 15.9 11 Oeste 23 Oeste 0 886.3 -- 81
2020-07-01 01:00:00 17.5 15 Noroeste 22 Oeste 0 886.6 -- 74
2020-07-01 00:00:00 17.9 14 Noroeste 24 Oeste 0 886.9 -- 77
2020-06-30 23:00:00 18.8 14 Oeste 23 Noroeste 0 886.8 -- 75
2020-06-30 22:00:00 19.3 5 Nordeste 21 Oeste 0 886.2 -- 72
2020-06-30 21:00:00 20.7 8 Norte 18 Norte 0 885.8 -- 65
2020-06-30 20:00:00 23.3 9 Norte 31 Norte 0 885.5 -- 62
2020-06-30 19:00:00 28.7 5 Oeste 27 Oeste 0 885.5 -- 35
2020-06-30 18:00:00 29.1 8 Sudoeste 29 Oeste 0 885.8 -- 35
2020-06-30 17:00:00 28.3 8 Sudoeste 26 Oeste 0 886.2 -- 35
2020-06-30 16:00:00 28.2 7 Sudoeste 27 Sur 0 886.6 -- 45
2020-06-30 15:00:00 27.8 11 Sudeste 29 Sur 0 887.1 -- 48
2020-06-30 14:00:00 26 8 Este 24 Sur 0 887.5 -- 49
2020-06-30 13:00:00 25.2 9 Sudeste 19 Sudeste 0 887.9 -- 57
2020-06-30 12:00:00 22.1 10 Sudeste 22 Sur 0 888.2 -- 64
2020-06-30 11:00:00 19 10 Sur 17 Sudoeste 0 888.5 -- 76
2020-06-30 10:00:00 16.2 4 Oeste 13 Oeste 0 888.7 -- 81
2020-06-30 09:00:00 13.1 2 Oeste 8 Noroeste 0 888.8 -- 91
2020-06-30 08:00:00 11.7 5 Noroeste 22 Oeste 0 888.8 -- 93
2020-06-30 07:00:00 9.8 8 Oeste 20 Oeste 0 888.8 -- 94
2020-06-30 06:00:00 8.9 3 Noroeste 11 Oeste 0 888.5 -- 89
2020-06-30 05:00:00 10.4 6 Este 16 Sur 0 889 -- 89
2020-06-30 04:00:00 12 8 Noroeste 13 Noroeste 0 889.1 -- 93
2020-06-30 03:00:00 12.4 4 Noroeste 19 Oeste 0 889.6 -- 92
2020-06-30 02:00:00 13.4 10 Noroeste 15 Oeste 0 890 -- 86
2020-06-30 01:00:00 13.7 9 Noroeste 18 Oeste 0 890.3 -- 87
2020-06-30 00:00:00 14.4 8 Noroeste 18 Oeste 0 890.5 -- 89
2020-06-29 23:00:00 14.8 9 Noroeste 17 Oeste 0 890.4 -- 85
2020-06-29 22:00:00 16.3 7 Noroeste 12 Oeste 0 890.2 -- 79
2020-06-29 21:00:00 20.4 6 Norte 15 Noroeste 0 890.3 -- 66
2020-06-29 20:00:00 21.6 7 Norte 19 Oeste 0 890.1 -- 65
2020-06-29 19:00:00 23.8 5 Nordeste 18 Sur 0 890.2 -- 63
2020-06-29 18:00:00 24.4 9 Sudeste 21 Sudeste 0 890.5 -- 59
2020-06-29 17:00:00 24.3 13 Sudeste 23 Sur 0 890.8 -- 60
2020-06-29 16:00:00 22.6 10 Sudeste 21 Sur 0 891.1 -- 65
2020-06-29 15:00:00 22.1 11 Este 23 Sur 0 891.4 -- 68
2020-06-29 14:00:00 22.3 9 Sudeste 15 Sur 0 891.7 -- 70
2020-06-29 13:00:00 20 9 Sudeste 19 Sur 0 891.9 -- 72
2020-06-29 12:00:00 17.4 8 Sur 18 Sur 0 892 -- 76
2020-06-29 11:00:00 16.4 8 Sudeste 13 Sudeste 0 891.8 -- 81
2020-06-29 10:00:00 16.2 4 Este 10 Sur 0 891.9 -- 82
2020-06-29 09:00:00 14.9 3 Este 8 Sudeste 0 891.7 -- 87
2020-06-29 08:00:00 13.7 2 Sudeste 4 Sudeste 0 891.5 -- 92
2020-06-29 07:00:00 13.1 2 Sudeste 6 Sudeste 0 891.4 -- 92
2020-06-29 06:00:00 13.4 3 Sudeste 6 Este 0 891.2 -- 90
2020-06-29 05:00:00 13.8 2 Este 5 Sudeste 0 891.3 -- 89
2020-06-29 04:00:00 13.7 0 Calma 10 Oeste 0 891.4 -- 89
2020-06-29 03:00:00 14 5 Norte 13 Noroeste 0 891.6 -- 87
2020-06-29 02:00:00 14.3 5 Noroeste 14 Oeste 0 891.9 -- 89
2020-06-29 01:00:00 14.4 3 Nordeste 16 Noroeste 0 892 -- 88
2020-06-29 00:00:00 14.5 6 Noroeste 17 Noroeste 0 892.1 -- 87
2020-06-28 23:00:00 14.4 10 Noroeste 17 Noroeste 0 891.9 -- 89
2020-06-28 22:00:00 15 12 Norte 19 Noroeste 0 891.7 -- 87
2020-06-28 21:00:00 16.9 11 Norte 23 Noroeste 0 891.2 -- 80
2020-06-28 20:00:00 18.7 12 Norte 23 Nordeste 0 891.1 -- 74
2020-06-28 19:00:00 23.9 8 Nordeste 23 Nordeste 0 890.6 -- 61
2020-06-28 18:00:00 24.5 11 Norte 23 Noroeste 0 890.5 -- 59
2020-06-28 17:00:00 27.2 10 Sur 24 Sur 0 890.8 -- 43
2020-06-28 16:00:00 26.1 16 Sur 32 Sur 0 891 -0.8 49
2020-06-28 15:00:00 25.2 16 Sudeste 27 Sur 0 891.1 -- 51
2020-06-28 14:00:00 23.7 14 Sudeste 26 Sudeste 0 891.5 -- 57
2020-06-28 13:00:00 22.2 13 Sudeste 24 Sur 0 891.8 -- 65
2020-06-28 12:00:00 19.1 9 Sur 17 Sur 0 892.1 -- 73
2020-06-28 11:00:00 15.8 3 Sudoeste 19 Sudoeste 0 892.1 -- 80
2020-06-28 10:00:00 14 3 Norte 9 Noroeste 0 891.9 -- 87
2020-06-28 09:00:00 13.4 2 Sudeste 17 Sudoeste 0 891.4 -- 92
2020-06-28 08:00:00 12.2 2 Oeste 15 Oeste 0 891 -- 92
2020-06-28 07:00:00 12.3 3 Noroeste 8 Sudoeste 0 890.8 -- 94
2020-06-28 06:00:00 12.7 0 Calma 17 Sudoeste 0 890.6 -- 94
2020-06-28 05:00:00 12.7 2 Sur 6 Sudeste 0 890.8 -- 95
2020-06-28 04:00:00 12.5 2 Oeste 6 Sur 0 890.9 -- 95
2020-06-28 03:00:00 12 0 Calma 13 Noroeste 0 890.9 -- 94
2020-06-28 02:00:00 12.4 4 Noroeste 6 Noroeste 0 891 -- 93
2020-06-28 01:00:00 13.1 4 Norte 12 Oeste 0 891.1 -- 90
2020-06-28 00:00:00 14.1 5 Sudeste 17 Oeste 0 890.9 -- 85
2020-06-27 23:00:00 15.5 12 Oeste 23 Noroeste 0 890.5 -- 81
2020-06-27 22:00:00 18.3 10 Oeste 28 Sur 0 889.7 -- 61
2020-06-27 21:00:00 20.8 14 Sudoeste 35 Sudoeste 0 889.3 -- 48
2020-06-27 20:00:00 22.7 17 Sudoeste 35 Sudoeste 0 889 -- 45
2020-06-27 19:00:00 23.5 14 Sudoeste 45 Sur 0 888.9 -- 45
2020-06-27 18:00:00 23.4 14 Sudoeste 28 Sudoeste 0 889.1 -- 48
2020-06-27 17:00:00 20.6 16 Sudoeste 39 Sudoeste 0 889.3 -- 58
2020-06-27 16:00:00 23.9 17 Sudoeste 43 Sur 0 889.1 -- 54
2020-06-27 15:00:00 22.6 20 Sudoeste 42 Sur 0 889 -- 55
2020-06-27 14:00:00 22.6 17 Sudoeste 40 Sur 0 889.4 -- 57
2020-06-27 13:00:00 21.9 15 Sudoeste 35 Sur 0 889.3 -- 60
2020-06-27 12:00:00 19.9 13 Sudoeste 32 Sudoeste 0 889.2 -- 69
2020-06-27 11:00:00 16.4 4 Sudoeste 16 Sudoeste 0 889 -- 77
2020-06-27 10:00:00 13.9 3 Este 8 Sur 0 888.8 -- 89
2020-06-27 09:00:00 11.1 6 Sur 17 Sur 0 888.5 -- 95
2020-06-27 08:00:00 9.4 5 Sudoeste 17 Oeste 0 888 -- 94
2020-06-27 07:00:00 9.1 4 Este 17 Sudoeste 0 888 -- 93
2020-06-27 06:00:00 10 5 Noroeste 22 Oeste 0 887.8 -- 94
2020-06-27 05:00:00 9.5 4 Noroeste 22 Oeste 0 887.6 -- 94
2020-06-27 04:00:00 10.1 5 Noroeste 19 Oeste 0 887.9 -- 94
2020-06-27 03:00:00 10.5 4 Noroeste 18 Oeste 0 887.8 -- 92
2020-06-27 02:00:00 10.5 3 Nordeste 10 Oeste 0 887.9 -- 90
2020-06-27 01:00:00 11.1 4 Este 10 Oeste 0 887.8 -- 88
2020-06-27 00:00:00 12 4 Este 12 Sur 0 888 -- 85
2020-06-26 23:00:00 14 7 Noroeste 17 Noroeste 0 887.7 -- 78
2020-06-26 22:00:00 15 10 Noroeste 16 Noroeste 0 886.9 -- 74
2020-06-26 21:00:00 19.3 8 Noroeste 18 Noroeste 0 886.6 -- 61
2020-06-26 20:00:00 23.7 6 Noroeste 20 Sur 0 886 -- 50
2020-06-26 19:00:00 24 8 Sudoeste 23 Sur 0 885.9 -- 43
2020-06-26 18:00:00 23.6 10 Sudoeste 38 Sudoeste 0 885.8 -- 45
2020-06-26 17:00:00 23.6 -- -- -- -- 0 886 -- 42
2020-06-26 16:00:00 23.4 -- -- -- -- 0 886.2 -- 52
2020-06-26 15:00:00 24 -- -- -- -- 0 886.1 -- 55
2020-06-26 14:00:00 21.2 16 Sur 28 Sur 0 886.2 -- 68
2020-06-26 13:00:00 21.8 13 Sudeste 26 Sur 0 886.3 -- 69
2020-06-26 12:00:00 20.9 14 Sudeste 25 Sudeste 0 886.5 -- 77
2020-06-26 11:00:00 18 13 Sudeste 20 Sur 0 886.6 -- 83
2020-06-26 10:00:00 16.1 4 Sudeste 14 Sur 0 886.8 -- 90
2020-06-26 09:00:00 14.3 3 Este 8 Sudoeste 0 886.9 -- 95
2020-06-26 08:00:00 12.6 2 Noroeste 17 Oeste 0 886.9 -- 95
2020-06-26 07:00:00 11.6 3 Sudeste 19 Oeste 0 887 -- 94
2020-06-26 06:00:00 12 5 Oeste 18 Oeste 0 887.1 -- 95
2020-06-26 05:00:00 12.1 4 Noroeste 16 Oeste 0 887.1 -- 94
2020-06-26 04:00:00 12.7 3 Noroeste 21 Oeste 0 887.4 -- 91
2020-06-26 03:00:00 13.4 6 Noroeste 16 Noroeste 0 887.7 -- 91
2020-06-26 02:00:00 13.5 7 Noroeste 19 Oeste 0 888.1 -- 90
2020-06-26 01:00:00 14.5 9 Noroeste 19 Oeste 0 888.5 -- 88
2020-06-26 00:00:00 14.8 8 Oeste 21 Noroeste 0 888.7 -- 90
2020-06-25 23:00:00 15.5 12 Oeste 20 Oeste 0 888.8 -- 90
2020-06-25 22:00:00 16.6 6 Norte 18 Oeste 0 887.8 -- 83
2020-06-25 21:00:00 19 8 Sudoeste 27 Sur 0 888.2 -- 77
2020-06-25 20:00:00 20.4 12 Sudeste -- -- 0 887.3 -- 69
2020-06-25 19:00:00 24.6 11 Sudeste 20 Oeste 0 887.9 -- 54
2020-06-25 18:00:00 24.3 5 Norte 19 Oeste 0 887.7 -- 65
2020-06-25 17:00:00 22.2 5 Sur 17 Oeste 0 888.5 -- 72
2020-06-25 16:00:00 18 7 Oeste 18 Noroeste 0.6 889 -- 80
2020-06-25 15:00:00 15.8 7 Sudoeste -- -- 0.4 889.6 -- 88
2020-06-25 14:00:00 16.3 -- -- -- -- 1 889.7 -- 88
2020-06-25 13:00:00 18.5 12 Este 20 Este 0 889.2 -- 80
2020-06-25 12:00:00 20.6 8 Sur 19 Oeste 0 888.9 -- 69
2020-06-25 11:00:00 17.2 8 Oeste 19 Noroeste 0 888.7 -- 81
2020-06-25 10:00:00 16.1 8 Oeste 33 Oeste 0 889.1 -- 84
2020-06-25 09:00:00 13.4 14 Norte -- -- 0.8 888.4 -- 88
2020-06-25 08:00:00 14.2 -- -- -- -- 1.4 889.4 -- 84
2020-06-25 07:00:00 13.5 11 Noroeste 31 Oeste 1.4 889.2 -- 88
2020-06-25 06:00:00 15 8 Oeste 23 Oeste 0 889.9 -- 74
2020-06-25 05:00:00 14.7 9 Noroeste 20 Noroeste 0 889.1 -- 78
2020-06-25 04:00:00 14.5 4 Oeste 14 Sudeste 0 889.6 -- 82
2020-06-25 03:00:00 16 10 Sur 19 Oeste 0 889.7 -- 72
2020-06-25 02:00:00 16.7 11 Oeste 21 Oeste 0 890.7 -- 73
2020-06-25 01:00:00 17.5 11 Sudoeste 25 Noroeste 0 891.5 -- 71
2020-06-25 00:00:00 18.1 12 Oeste -- -- 0 891.8 -- 66
2020-06-24 23:00:00 17.7 -- -- -- -- 0 891 -- 67
2020-06-24 22:00:00 19.9 -- -- -- -- 0 890.5 -- 62
2020-06-24 21:00:00 21.2 -- -- -- -- 0 890.4 -- 57
2020-06-24 20:00:00 21.6 -- -- -- -- 0 890 -- 59
2020-06-24 19:00:00 21.8 10 Oeste -- -- 0 889.3 -- 62
2020-06-24 18:00:00 21.2 -- -- -- -- 0.2 890.1 -- 60
2020-06-24 17:00:00 20.6 20 Sur 45 Sudoeste 0 890.5 -- 46
2020-06-24 16:00:00 22.4 13 Sudoeste 29 Sudoeste 0 890.5 -- 52
2020-06-24 15:00:00 28 9 Sudeste 24 Sur 0 889.7 -- 38
2020-06-24 14:00:00 26.7 6 Sudeste 18 Sudeste 0 889.8 -- 45
2020-06-24 13:00:00 26.5 10 Sudeste 21 Sudeste 0 889.7 -- 48
2020-06-24 12:00:00 25.9 9 Sudeste 19 Sur 0 889.7 -- 47
2020-06-24 11:00:00 23.8 9 Sur 17 Sur 0 889.7 -- 48
2020-06-24 10:00:00 21 8 Noroeste 21 Oeste 0 889.6 -- 59
2020-06-24 09:00:00 18.9 13 Noroeste 26 Noroeste 0 889.6 -- 50
2020-06-24 08:00:00 16.2 14 Noroeste 22 Oeste 0 889.7 -- 53
2020-06-24 07:00:00 14.7 9 Noroeste 22 Oeste 0 889.6 -- 59
2020-06-24 06:00:00 16.8 14 Oeste 23 Oeste 0 889 -- 50
2020-06-24 05:00:00 17.3 14 Oeste 20 Sur 0 889 -- 47
2020-06-24 04:00:00 20.3 6 Norte 43 Noroeste 0 889.1 -- 38
2020-06-24 03:00:00 19.7 7 Norte 33 Noroeste 0 889.3 -- 44
2020-06-24 02:00:00 18.6 12 Oeste 26 Noroeste 0 890.7 -- 55
2020-06-24 01:00:00 15.7 9 Noroeste 34 Sur 0.2 890.8 -- 78
2020-06-24 00:00:00 17.7 12 Oeste 21 Oeste 0 890.8 -- 62
2020-06-23 23:00:00 19.2 3 Noroeste 20 Oeste 0 890.1 -- 57
2020-06-23 22:00:00 21.6 6 Noroeste 16 Noroeste 0 889.3 -- 45
2020-06-23 21:00:00 25.4 2 Sur 18 Norte 0 889.1 -- 48
2020-06-23 20:00:00 27.1 5 Norte 18 Noroeste 0 888.9 -- 45
2020-06-23 19:00:00 29.8 3 Norte 22 Sudoeste 0 889 -- 36
2020-06-23 18:00:00 30.4 10 Sudoeste 24 Oeste 0 889.1 -- 27
2020-06-23 17:00:00 30.5 8 Sudoeste 27 Sudoeste 0 889.4 -- 31
2020-06-23 16:00:00 30 10 Sudoeste 33 Sur 0 889.6 -- 33
2020-06-23 15:00:00 29.2 10 Sudoeste 32 Sur 0 889.9 -- 33
2020-06-23 14:00:00 28.6 10 Sudeste 25 Sur 0 890.2 -- 37
2020-06-23 13:00:00 27.4 6 Sudeste 18 Sudoeste 0 890.8 -- 43
2020-06-23 12:00:00 23.3 4 Este 18 Sur 0 890.9 -- 45
2020-06-23 11:00:00 20.4 6 Sudeste 18 Oeste 0 891.3 -- 49
2020-06-23 10:00:00 18.9 8 Oeste 19 Noroeste 0 891.6 -- 54
2020-06-23 09:00:00 16.5 9 Noroeste 24 Oeste 0 891.7 -- 50
2020-06-23 08:00:00 14.1 8 Noroeste 28 Oeste 0 891.7 -- 49
2020-06-23 07:00:00 12.9 11 Noroeste 26 Oeste 0 891.7 -- 49
2020-06-23 06:00:00 12.5 9 Noroeste 23 Oeste 0 891.8 -- 52
2020-06-23 05:00:00 12.4 5 Noroeste 19 Noroeste 0 891.9 -- 57
2020-06-23 04:00:00 11.7 8 Noroeste 21 Oeste 0 892.2 -- 67
2020-06-23 03:00:00 14.7 15 Noroeste 22 Oeste 0 892.9 -- 52
2020-06-23 02:00:00 15.1 12 Noroeste 21 Oeste 0 893.2 -- 71
2020-06-23 01:00:00 14.8 14 Oeste 20 Oeste 0 893.5 -- 78
2020-06-23 00:00:00 15.6 11 Oeste 19 Oeste 0 893.8 -- 76
2020-06-22 23:00:00 17.9 17 Oeste 23 Oeste 0 893.7 -- 69
2020-06-22 22:00:00 18.9 5 Oeste 15 Sudoeste 0 893.3 -- 67
2020-06-22 21:00:00 22.7 8 Este 17 Sudeste 0 893.4 -- 55
2020-06-22 20:00:00 25.6 9 Sudeste 21 Sudeste 0 893.4 -- 46
2020-06-22 19:00:00 26.2 13 Sudeste 22 Sudeste 0 893.6 -- 36
2020-06-22 18:00:00 27.6 8 Este 19 Sudeste 0 894 -- 34
2020-06-22 17:00:00 27.1 7 Este 16 Sudeste 0 894.5 -- 38
2020-06-22 16:00:00 26.4 9 Sudeste 21 Sur 0 895.1 -- 41
2020-06-22 15:00:00 25.4 9 Este 22 Sur 0 895.7 -- 44
2020-06-22 14:00:00 24 9 Este 24 Sur 0 896.2 -- 49
2020-06-22 13:00:00 22.5 10 Sudeste 21 Sur 0 896.4 -- 58
2020-06-22 12:00:00 19 10 Sur 15 Sur 0 896.5 -- 70
2020-06-22 11:00:00 15.3 3 Sur 17 Sudoeste 0 896.7 -- 89
2020-06-22 10:00:00 12.3 8 Sudoeste 18 Sudoeste 0 897.2 -- 95
2020-06-22 09:00:00 10.7 5 Oeste 21 Oeste 0 897.2 -- 96
2020-06-22 08:00:00 10.4 5 Oeste 18 Oeste 0 897.1 -- 96
2020-06-22 07:00:00 10.2 3 Norte 17 Oeste 0 897 -- 96
2020-06-22 06:00:00 10.4 3 Oeste 16 Oeste 0 897.1 -- 95
2020-06-22 05:00:00 10.4 3 Oeste 15 Sudoeste 0 897.3 -- 94
2020-06-22 04:00:00 11 2 Norte 12 Oeste 0 897.5 -- 92
2020-06-22 03:00:00 11.7 4 Noroeste 9 Noroeste 0 897.8 -- 92
2020-06-22 02:00:00 11.7 5 Noroeste 18 Oeste 0 898 -- 93
2020-06-22 01:00:00 12.2 5 Noroeste 17 Noroeste 0 898.4 -- 92
2020-06-22 00:00:00 12.6 8 Noroeste 18 Noroeste 0 898.3 -- 91
2020-06-21 23:00:00 12.9 9 Noroeste 17 Noroeste 0 897.9 -- 89
2020-06-21 22:00:00 14.1 10 Noroeste 20 Noroeste 0 897.3 -- 84
2020-06-21 21:00:00 16 10 Noroeste 24 Noroeste 0 896.8 -- 77
2020-06-21 20:00:00 17.9 12 Norte 25 Norte 0 896.5 -- 70
2020-06-21 19:00:00 20.5 12 Norte 26 Noroeste 0 896.2 -- 65
2020-06-21 18:00:00 22.5 11 Norte 24 Noroeste 0 896.2 -- 61
2020-06-21 17:00:00 24.6 15 Sudeste 23 Sudeste 0 896.1 -- 55
2020-06-21 16:00:00 24.7 9 Este 21 Sur 0 896.4 -- 48
2020-06-21 15:00:00 23.6 12 Sudeste 27 Sur 0 896.3 -- 50
2020-06-21 14:00:00 23.3 12 Sudeste 21 Sur 0 896.7 -- 52
2020-06-21 13:00:00 21.4 10 Este 19 Sudeste 0 896.5 -- 53
2020-06-21 12:00:00 19.4 9 Sudeste 17 Oeste 0 896.3 -- 64
2020-06-21 11:00:00 16.7 9 Sur 15 Sur 0 896.4 -- 67
2020-06-21 10:00:00 14.7 8 Sudeste 14 Sur 0 896.3 -- 70
2020-06-21 09:00:00 12.8 3 Noroeste 22 Oeste 0 895.8 -- 85
2020-06-21 08:00:00 10.3 5 Noroeste 22 Oeste 0 895.5 -- 92
2020-06-21 07:00:00 10.1 4 Noroeste 22 Oeste 0 895.1 -- 92
2020-06-21 06:00:00 10 5 Noroeste 19 Oeste 0 894.8 -- 93
2020-06-21 05:00:00 10.6 4 Noroeste 17 Oeste 0 894.8 -- 92
2020-06-21 04:00:00 11 6 Noroeste 21 Oeste 0 894.8 -- 93
2020-06-21 03:00:00 10.8 5 Noroeste 8 Noroeste 0 895 -- 93
2020-06-21 02:00:00 11.3 2 Oeste 6 Noroeste 0 895.3 -- 91
2020-06-21 01:00:00 12.2 4 Noroeste 15 Noroeste 0 895.2 -- 89
2020-06-21 00:00:00 13.6 4 Noroeste 17 Noroeste 0 894.8 -- 86
2020-06-20 23:00:00 14.8 13 Norte 23 Noroeste 0 894.5 -- 81
2020-06-20 22:00:00 16.4 9 Noroeste 21 Norte 0 893.9 -- 73
2020-06-20 21:00:00 22 7 Sudoeste 20 Oeste 0 893.5 -- 48
2020-06-20 20:00:00 24.7 10 Sudoeste 25 Sur 0 893.2 -- 37
2020-06-20 19:00:00 25 13 Sudoeste 22 Sudoeste 0 893.1 -- 32
2020-06-20 18:00:00 24.9 13 Sudoeste 36 Sudoeste 0 893.1 -- 35
2020-06-20 17:00:00 24.7 14 Sudoeste 44 Sudoeste 0 893.1 -- 34
2020-06-20 16:00:00 24.5 16 Sur 36 Sudoeste 0 893.2 -- 43
2020-06-20 15:00:00 24.2 12 Sudoeste 28 Sudoeste 0 893.2 -- 41
2020-06-20 14:00:00 23.4 12 Sudoeste 22 Sudoeste 0 893.5 -- 48
2020-06-20 13:00:00 21.9 12 Sur 31 Sudoeste 0 893.4 -- 48
2020-06-20 12:00:00 19.3 12 Sur 33 Sudoeste 0 893.6 -- 60
2020-06-20 11:00:00 15.6 8 Sudeste 21 Sudeste 0 893.6 -- 73
2020-06-20 10:00:00 12.2 4 Este 18 Sur 0 893.6 -- 95
2020-06-20 09:00:00 9.5 5 Oeste 19 Oeste 0 893.5 -- 96
2020-06-20 08:00:00 6.9 9 Oeste 17 Oeste 0 893.4 -- 96
2020-06-20 07:00:00 6.5 11 Oeste 20 Oeste 0 893.1 -- 96
2020-06-20 06:00:00 6.9 12 Oeste 20 Oeste 0 893 -- 95
2020-06-20 05:00:00 7.5 6 Noroeste 18 Oeste 0 893 -- 95
2020-06-20 04:00:00 7.5 9 Oeste 15 Oeste 0 893 -- 93
2020-06-20 03:00:00 8.4 8 Sudeste 17 Oeste 0 893 -- 90
2020-06-20 02:00:00 9.6 3 Noroeste 19 Oeste 0 893 -- 92
2020-06-20 01:00:00 10.2 4 Noroeste 12 Noroeste 0 893.1 -- 91
2020-06-20 00:00:00 10.6 4 Norte 16 Noroeste 0 892.9 -- 88
2020-06-19 23:00:00 11.7 3 Noroeste 19 Noroeste 0 892.5 -- 85
2020-06-19 22:00:00 13 5 Noroeste 24 Norte 0 891.9 -- 78
2020-06-19 21:00:00 15.9 8 Norte 21 Nordeste 0 891.2 -- 65
2020-06-19 20:00:00 19.1 7 Noroeste 23 Norte 0 890.7 -- 61
2020-06-19 19:00:00 21.2 8 Norte 24 Sur 0 890.2 -- 51
2020-06-19 18:00:00 23.4 10 Sudoeste 35 Sudoeste 0 889.9 -- 36
2020-06-19 17:00:00 23.6 10 Sudoeste 26 Sur 0 889.9 -- 39
2020-06-19 16:00:00 22.3 12 Sur 35 Sur 0 889.9 -- 45
2020-06-19 15:00:00 21.6 12 Sur 38 Sur 0 890.1 -- 49
2020-06-19 14:00:00 19.9 16 Sudeste 33 Sur 0 890.2 -- 52
2020-06-19 13:00:00 18.5 9 Sudeste 22 Sur 0 890.2 -- 58
2020-06-19 12:00:00 16.1 8 Sudeste 18 Sudoeste 0 890.2 -- 69
2020-06-19 11:00:00 13.1 11 Sudeste 19 Sudeste 0 890 -- 69
2020-06-19 10:00:00 11.7 4 Sudoeste 18 Sur 0 890 -- 77
2020-06-19 09:00:00 10.2 7 Oeste 19 Oeste 0 889.8 -- 86
2020-06-19 08:00:00 8 15 Oeste 22 Oeste 0 889.6 -- 93
2020-06-19 07:00:00 6.7 13 Noroeste 22 Oeste 0 889.1 -- 95
2020-06-19 06:00:00 6.3 9 Noroeste 22 Oeste 0 888.9 -- 94
2020-06-19 05:00:00 6.1 9 Noroeste 19 Oeste 0 888.9 -- 91
2020-06-19 04:00:00 6.9 7 Norte 18 Oeste 0 889.2 -- 92
2020-06-19 03:00:00 7.2 5 Noroeste 20 Oeste 0 889.3 -- 93
2020-06-19 02:00:00 7.7 8 Noroeste 18 Oeste 0 889.4 -- 93
2020-06-19 01:00:00 8.2 6 Norte 20 Oeste 0 889.4 -- 92
2020-06-19 00:00:00 8.8 9 Oeste 19 Oeste 0 889.3 -- 90
2020-06-18 23:00:00 9.1 4 Noroeste 17 Oeste 0 889 -- 90
2020-06-18 22:00:00 9.2 5 Norte 12 Norte 0 888.1 -- 87
2020-06-18 21:00:00 10.8 9 Norte 20 Norte 0 887.8 -- 82
2020-06-18 20:00:00 12.7 6 Norte 18 Noroeste 0 887.2 -- 77
2020-06-18 19:00:00 14.3 6 Norte 19 Norte 0 887 -- 72
2020-06-18 18:00:00 15.3 6 Norte 16 Este 0 887 -- 67
2020-06-18 17:00:00 15 9 Sudeste 17 Sudeste 0 887.2 -- 67
2020-06-18 16:00:00 15.6 5 Este 16 Este 0 887 -- 70
2020-06-18 15:00:00 16.8 7 Este 15 Sur 0 886.9 -- 65
2020-06-18 14:00:00 14.5 8 Sudeste -- -- -- 887.1 -- 67
2020-06-18 13:00:00 -- -- -- -- -- -- -- -- --
2020-06-18 12:00:00 -- -- -- -- -- -- -- -- --
2020-06-18 11:00:00 -- -- -- -- -- -- -- -- --
2020-06-18 10:00:00 -- -- -- -- -- -- -- -- --
2020-06-18 09:00:00 -- -- -- -- -- -- -- -- --
2020-06-18 08:00:00 -- -- -- -- -- -- -- -- --
2020-06-18 07:00:00 -- -- -- -- -- -- -- -- --
2020-06-18 06:00:00 -- -- -- -- -- -- -- -- --
2020-06-18 05:00:00 -- -- -- -- -- -- -- -- --
2020-06-18 04:00:00 -- -- -- -- -- -- -- -- --
2020-06-18 03:00:00 -- -- -- -- -- -- -- -- --
2020-06-18 02:00:00 -- -- -- -- -- -- -- -- --
2020-06-18 01:00:00 -- -- -- -- -- -- -- -- --
2020-06-18 00:00:00 -- -- -- -- -- -- -- -- --
2020-06-17 23:00:00 -- -- -- -- -- -- -- -- --
2020-06-17 22:00:00 -- -- -- -- -- -- -- -- --
2020-06-17 21:00:00 -- -- -- -- -- -- -- -- --
2020-06-17 20:00:00 -- -- -- -- -- -- -- -- --
2020-06-17 19:00:00 -- -- -- -- -- -- -- -- --
2020-06-17 18:00:00 -- -- -- -- -- -- -- -- --
2020-06-17 17:00:00 -- -- -- -- -- -- -- -- --
2020-06-17 16:00:00 -- -- -- -- -- -- -- -- --
2020-06-17 15:00:00 -- -- -- -- -- -- -- -- --
2020-06-17 14:00:00 -- -- -- -- -- -- -- -- --
2020-06-17 13:00:00 -- -- -- -- -- -- -- -- --
2020-06-17 12:00:00 -- -- -- -- -- -- -- -- --
2020-06-17 11:00:00 -- -- -- -- -- -- -- -- --
2020-06-17 10:00:00 -- -- -- -- -- -- -- -- --
2020-06-17 09:00:00 -- -- -- -- -- -- -- -- --
2020-06-17 08:00:00 -- -- -- -- -- -- -- -- --
2020-06-17 07:00:00 -- -- -- -- -- -- -- -- --
2020-06-17 06:00:00 -- -- -- -- -- -- -- -- --
2020-06-17 05:00:00 -- -- -- -- -- -- -- -- --
2020-06-17 04:00:00 -- -- -- -- -- -- -- -- --
2020-06-17 03:00:00 -- -- -- -- -- -- -- -- --
2020-06-17 02:00:00 -- -- -- -- -- -- -- -- --
2020-06-17 01:00:00 -- -- -- -- -- -- -- -- --
2020-06-17 00:00:00 -- -- -- -- -- -- -- -- --
2020-06-16 23:00:00 -- -- -- -- -- -- -- -- --
2020-06-16 22:00:00 -- -- -- -- -- -- -- -- --
2020-06-16 21:00:00 -- -- -- -- -- -- -- -- --
2020-06-16 20:00:00 -- -- -- -- -- -- -- -- --
2020-06-16 19:00:00 -- -- -- -- -- -- -- -- --
2020-06-16 18:00:00 -- -- -- -- -- -- -- -- --
2020-06-16 17:00:00 -- -- -- -- -- -- -- -- --
2020-06-16 16:00:00 -- -- -- -- -- -- -- -- --
2020-06-16 15:00:00 -- -- -- -- -- -- -- -- --
2020-06-16 14:00:00 -- -- -- -- -- -- -- -- --
2020-06-16 13:00:00 -- -- -- -- -- -- -- -- --
2020-06-16 12:00:00 -- -- -- -- -- -- -- -- --
2020-06-16 11:00:00 -- -- -- -- -- -- -- -- --
2020-06-16 10:00:00 -- -- -- -- -- -- -- -- --
2020-06-16 09:00:00 -- -- -- -- -- -- -- -- --
2020-06-16 08:00:00 -- -- -- -- -- -- -- -- --
2020-06-16 07:00:00 -- -- -- -- -- -- -- -- --
2020-06-16 06:00:00 -- -- -- -- -- -- -- -- --
2020-06-16 05:00:00 -- -- -- -- -- -- -- -- --
2020-06-16 04:00:00 -- -- -- -- -- -- -- -- --
2020-06-16 03:00:00 -- -- -- -- -- -- -- -- --
2020-06-16 02:00:00 -- -- -- -- -- -- -- -- --
2020-06-16 01:00:00 -- -- -- -- -- -- -- -- --
2020-06-16 00:00:00 -- -- -- -- -- -- -- -- --
2020-06-15 23:00:00 -- -- -- -- -- -- -- -- --
2020-06-15 22:00:00 -- -- -- -- -- -- -- -- --
2020-06-15 21:00:00 -- -- -- -- -- -- -- -- --
2020-06-15 20:00:00 -- -- -- -- -- -- -- -- --
2020-06-15 19:00:00 -- -- -- -- -- -- -- -- --
2020-06-15 18:00:00 -- -- -- -- -- -- -- -- --
2020-06-15 17:00:00 -- -- -- -- -- -- -- -- --
2020-06-15 16:00:00 -- -- -- -- -- -- -- -- --
2020-06-15 15:00:00 -- -- -- -- -- -- -- -- --
2020-06-15 14:00:00 -- -- -- -- -- -- -- -- --
2020-06-15 13:00:00 -- -- -- -- -- -- -- -- --
2020-06-15 12:00:00 -- -- -- -- -- -- -- -- --
2020-06-15 11:00:00 -- -- -- -- -- -- -- -- --
2020-06-15 10:00:00 -- -- -- -- -- -- -- -- --
2020-06-15 09:00:00 -- -- -- -- -- -- -- -- --
2020-06-15 08:00:00 -- -- -- -- -- -- -- -- --
2020-06-15 07:00:00 -- -- -- -- -- -- -- -- --
2020-06-15 06:00:00 -- -- -- -- -- -- -- -- --
2020-06-15 05:00:00 -- -- -- -- -- -- -- -- --
2020-06-15 04:00:00 -- -- -- -- -- -- -- -- --
2020-06-15 03:00:00 -- -- -- -- -- -- -- -- --
2020-06-15 02:00:00 -- -- -- -- -- -- -- -- --
2020-06-15 01:00:00 -- -- -- -- -- -- -- -- --
2020-06-15 00:00:00 -- -- -- -- -- -- -- -- --
2020-06-14 23:00:00 -- -- -- -- -- -- -- -- --
2020-06-14 22:00:00 -- -- -- -- -- -- -- -- --
2020-06-14 21:00:00 -- -- -- -- -- -- -- -- --
2020-06-14 20:00:00 -- -- -- -- -- -- -- -- --
2020-06-14 19:00:00 -- -- -- -- -- -- -- -- --
2020-06-14 18:00:00 -- -- -- -- -- -- -- -- --
2020-06-14 17:00:00 -- -- -- -- -- -- -- -- --
2020-06-14 16:00:00 -- -- -- -- -- -- -- -- --
2020-06-14 15:00:00 -- -- -- -- -- -- -- -- --
2020-06-14 14:00:00 -- -- -- -- -- -- -- -- --
2020-06-14 13:00:00 -- -- -- -- -- -- -- -- --
2020-06-14 12:00:00 -- -- -- -- -- -- -- -- --
2020-06-14 11:00:00 -- -- -- -- -- -- -- -- --
2020-06-14 10:00:00 -- -- -- -- -- -- -- -- --
2020-06-14 09:00:00 -- -- -- -- -- -- -- -- --
2020-06-14 08:00:00 -- -- -- -- -- -- -- -- --
2020-06-14 07:00:00 -- -- -- -- -- -- -- -- --
2020-06-14 06:00:00 -- -- -- -- -- -- -- -- --
2020-06-14 05:00:00 -- -- -- -- -- -- -- -- --
2020-06-14 04:00:00 -- -- -- -- -- -- -- -- --
2020-06-14 03:00:00 -- -- -- -- -- -- -- -- --
2020-06-14 02:00:00 -- -- -- -- -- -- -- -- --
2020-06-14 01:00:00 -- -- -- -- -- -- -- -- --
2020-06-14 00:00:00 -- -- -- -- -- -- -- -- --
2020-06-13 23:00:00 -- -- -- -- -- -- -- -- --
2020-06-13 22:00:00 -- -- -- -- -- -- -- -- --
2020-06-13 21:00:00 -- -- -- -- -- -- -- -- --
2020-06-13 20:00:00 -- -- -- -- -- -- -- -- --
2020-06-13 19:00:00 -- -- -- -- -- -- -- -- --
2020-06-13 18:00:00 -- -- -- -- -- -- -- -- --
2020-06-13 17:00:00 -- -- -- -- -- -- -- -- --
2020-06-13 16:00:00 -- -- -- -- -- -- -- -- --
2020-06-13 15:00:00 -- -- -- -- -- -- -- -- --
2020-06-13 14:00:00 -- -- -- -- -- -- -- -- --
2020-06-13 13:00:00 -- -- -- -- -- -- -- -- --
2020-06-13 12:00:00 -- -- -- -- -- -- -- -- --
2020-06-13 11:00:00 -- -- -- -- -- -- -- -- --
2020-06-13 10:00:00 -- -- -- -- -- -- -- -- --
2020-06-13 09:00:00 -- -- -- -- -- -- -- -- --
2020-06-13 08:00:00 -- -- -- -- -- -- -- -- --
2020-06-13 07:00:00 -- -- -- -- -- -- -- -- --
2020-06-13 06:00:00 -- -- -- -- -- -- -- -- --
2020-06-13 05:00:00 -- -- -- -- -- -- -- -- --
2020-06-13 04:00:00 -- -- -- -- -- -- -- -- --
2020-06-13 03:00:00 -- -- -- -- -- -- -- -- --
2020-06-13 02:00:00 -- -- -- -- -- -- -- -- --
2020-06-13 01:00:00 -- -- -- -- -- -- -- -- --
2020-06-13 00:00:00 -- -- -- -- -- -- -- -- --
2020-06-12 23:00:00 -- -- -- -- -- -- -- -- --
2020-06-12 22:00:00 -- -- -- -- -- -- -- -- --
2020-06-12 21:00:00 -- -- -- -- -- -- -- -- --
2020-06-12 20:00:00 -- -- -- -- -- -- -- -- --
2020-06-12 19:00:00 -- -- -- -- -- -- -- -- --
2020-06-12 18:00:00 -- -- -- -- -- -- -- -- --
2020-06-12 17:00:00 -- -- -- -- -- -- -- -- --
2020-06-12 16:00:00 -- -- -- -- -- -- -- -- --
2020-06-12 15:00:00 -- -- -- -- -- -- -- -- --
2020-06-12 14:00:00 -- -- -- -- -- -- -- -- --
2020-06-12 13:00:00 -- -- -- -- -- -- -- -- --
2020-06-12 12:00:00 -- -- -- -- -- -- -- -- --
2020-06-12 11:00:00 -- -- -- -- -- -- -- -- --
2020-06-12 10:00:00 -- -- -- -- -- -- -- -- --
2020-06-12 09:00:00 -- -- -- -- -- -- -- -- --
2020-06-12 08:00:00 -- -- -- -- -- -- -- -- --
2020-06-12 07:00:00 -- -- -- -- -- -- -- -- --
2020-06-12 06:00:00 -- -- -- -- -- -- -- -- --
2020-06-12 05:00:00 -- -- -- -- -- -- -- -- --
2020-06-12 04:00:00 -- -- -- -- -- -- -- -- --
2020-06-12 03:00:00 -- -- -- -- -- -- -- -- --
2020-06-12 02:00:00 -- -- -- -- -- -- -- -- --
2020-06-12 01:00:00 -- -- -- -- -- -- -- -- --
2020-06-12 00:00:00 -- -- -- -- -- -- -- -- --
2020-06-11 23:00:00 -- -- -- -- -- -- -- -- --
2020-06-11 22:00:00 -- -- -- -- -- -- -- -- --
2020-06-11 21:00:00 -- -- -- -- -- -- -- -- --
2020-06-11 20:00:00 -- -- -- -- -- -- -- -- --
2020-06-11 19:00:00 -- -- -- -- -- -- -- -- --
2020-06-11 18:00:00 -- -- -- -- -- -- -- -- --
2020-06-11 17:00:00 -- -- -- -- -- -- -- -- --
2020-06-11 16:00:00 -- -- -- -- -- -- -- -- --
2020-06-11 15:00:00 -- -- -- -- -- -- -- -- --
2020-06-11 14:00:00 -- -- -- -- -- -- -- -- --
2020-06-11 13:00:00 -- -- -- -- -- -- -- -- --
2020-06-11 12:00:00 -- -- -- -- -- -- -- -- --
2020-06-11 11:00:00 -- -- -- -- -- -- -- -- --
2020-06-11 10:00:00 -- -- -- -- -- -- -- -- --
2020-06-11 09:00:00 -- -- -- -- -- -- -- -- --
2020-06-11 08:00:00 -- -- -- -- -- -- -- -- --
2020-06-11 07:00:00 -- -- -- -- -- -- -- -- --
2020-06-11 06:00:00 -- -- -- -- -- -- -- -- --
2020-06-11 05:00:00 -- -- -- -- -- -- -- -- --
2020-06-11 04:00:00 -- -- -- -- -- -- -- -- --
2020-06-11 03:00:00 -- -- -- -- -- -- -- -- --
2020-06-11 02:00:00 -- -- -- -- -- -- -- -- --
2020-06-11 01:00:00 -- -- -- -- -- -- -- -- --
2020-06-11 00:00:00 -- -- -- -- -- -- -- -- --
2020-06-10 23:00:00 -- -- -- -- -- -- -- -- --
2020-06-10 22:00:00 -- -- -- -- -- -- -- -- --
2020-06-10 21:00:00 -- -- -- -- -- -- -- -- --
2020-06-10 20:00:00 -- -- -- -- -- -- -- -- --
2020-06-10 19:00:00 -- -- -- -- -- -- -- -- --
2020-06-10 18:00:00 -- -- -- -- -- -- -- -- --
2020-06-10 17:00:00 -- -- -- -- -- -- -- -- --
2020-06-10 16:00:00 -- -- -- -- -- -- -- -- --
2020-06-10 15:00:00 -- -- -- -- -- -- -- -- --
2020-06-10 14:00:00 -- -- -- -- -- -- -- -- --
2020-06-10 13:00:00 -- -- -- -- -- -- -- -- --
2020-06-10 12:00:00 -- -- -- -- -- -- -- -- --
2020-06-10 11:00:00 -- -- -- -- -- -- -- -- --
2020-06-10 10:00:00 -- -- -- -- -- -- -- -- --
2020-06-10 09:00:00 -- -- -- -- -- -- -- -- --
2020-06-10 08:00:00 -- -- -- -- -- -- -- -- --
2020-06-10 07:00:00 -- -- -- -- -- -- -- -- --
2020-06-10 06:00:00 -- -- -- -- -- -- -- -- --
2020-06-10 05:00:00 -- -- -- -- -- -- -- -- --
2020-06-10 04:00:00 -- -- -- -- -- -- -- -- --
2020-06-10 03:00:00 -- -- -- -- -- -- -- -- --
2020-06-10 02:00:00 -- -- -- -- -- -- -- -- --
2020-06-10 01:00:00 -- -- -- -- -- -- -- -- --
2020-06-10 00:00:00 -- -- -- -- -- -- -- -- --
2020-06-09 23:00:00 -- -- -- -- -- -- -- -- --
2020-06-09 22:00:00 -- -- -- -- -- -- -- -- --
2020-06-09 21:00:00 -- -- -- -- -- -- -- -- --
2020-06-09 20:00:00 -- -- -- -- -- -- -- -- --
2020-06-09 19:00:00 -- -- -- -- -- -- -- -- --
2020-06-09 18:00:00 -- -- -- -- -- -- -- -- --
2020-06-09 17:00:00 -- -- -- -- -- -- -- -- --
2020-06-09 16:00:00 -- -- -- -- -- -- -- -- --
2020-06-09 15:00:00 -- -- -- -- -- -- -- -- --
2020-06-09 14:00:00 -- -- -- -- -- -- -- -- --
2020-06-09 13:00:00 -- -- -- -- -- -- -- -- --
2020-06-09 12:00:00 -- -- -- -- -- -- -- -- --
2020-06-09 11:00:00 -- -- -- -- -- -- -- -- --
2020-06-09 10:00:00 -- -- -- -- -- -- -- -- --
2020-06-09 09:00:00 -- -- -- -- -- -- -- -- --
2020-06-09 08:00:00 -- -- -- -- -- -- -- -- --
2020-06-09 07:00:00 -- -- -- -- -- -- -- -- --
2020-06-09 06:00:00 -- -- -- -- -- -- -- -- --
2020-06-09 05:00:00 -- -- -- -- -- -- -- -- --
2020-06-09 04:00:00 -- -- -- -- -- -- -- -- --
2020-06-09 03:00:00 -- -- -- -- -- -- -- -- --
2020-06-09 02:00:00 -- -- -- -- -- -- -- -- --
2020-06-09 01:00:00 -- -- -- -- -- -- -- -- --
2020-06-09 00:00:00 -- -- -- -- -- -- -- -- --